Time;durP1;ratioP1;P1;durP2;ratioP2;P2;SDS_P1;SDS_P2;PMS_P1;PMS_P2;Temp;Humidity;BMP_temperature;BMP_pressure;BME280_temperature;BME280_humidity;BME280_pressure;Samples;Min_cycle;Max_cycle;Signal;HPM_P1;HPM_P2
2022/12/18 00:01:36;;;;;;;;;;;;;;;10.98;44.24;102315.31;4958669;28;127340;-70
2022/12/18 00:04:07;;;;;;;;;;;;;;;10.98;44.74;102302.66;4958895;28;105409;-66
2022/12/18 00:06:33;;;;;;;;;;;;;;;10.97;44.67;102311.81;4928629;28;99262;-70
2022/12/18 00:08:59;;;;;;;;;;;;;;;10.97;44.37;102303.69;4938313;28;108296;-66
2022/12/18 00:11:27;;;;;;;;;;;;;;;10.99;44.41;102306.97;4942252;28;98871;-66
2022/12/18 00:13:54;;;;;;;;;;;;;;;10.98;44.36;102309.91;4940547;28;112090;-70
2022/12/18 00:16:21;;;;;;;;;;;;;;;10.98;44.34;102308.03;4938992;28;99696;-70
2022/12/18 00:18:51;;;;;;;;;;;;;;;10.99;44.37;102303.47;4942031;28;98979;-70
2022/12/18 00:21:17;;;;;;;;;;;;;;;10.99;44.54;102303.47;4962840;28;98071;-70
2022/12/18 00:23:43;;;;;;;;;;;;;;;10.98;44.53;102299.94;4957815;28;123909;-70
2022/12/18 00:26:36;;;;;;;;;;;;;;;10.98;44.59;102308.03;4946035;28;98087;-66
2022/12/18 00:29:10;;;;;;;;;;;;;;;10.97;44.17;102303.69;4975053;28;120789;-70
2022/12/18 00:31:37;;;;;;;;;;;;;;;10.98;44.68;102307.22;4944175;28;98827;-70
2022/12/18 00:34:03;;;;;;;;;;;;;;;10.97;44.38;102317.19;4976137;28;126400;-70
2022/12/18 00:36:31;;;;;;;;;;;;;;;10.97;44.53;102311.81;4943470;28;121574;-66
2022/12/18 00:38:57;;;;;;;;;;;;;;;10.98;44.63;102308.03;4942908;28;97939;-66
2022/12/18 00:44:08;;;;;;;;;;;;;;;10.98;44.63;102321.53;4944968;28;98051;-70
2022/12/18 00:46:34;;;;;;;;;;;;;;;10.98;44.32;102318.00;4959389;28;110370;-66
2022/12/18 00:49:00;;;;;;;;;;;;;;;10.97;44.56;102316.38;4959201;28;128378;-70
2022/12/18 00:51:26;;;;;;;;;;;;;;;10.98;44.66;102318.00;4959418;28;106728;-66
2022/12/18 00:53:52;;;;;;;;;;;;;;;10.97;44.60;102321.78;4960033;28;122651;-70
2022/12/18 00:56:21;;;;;;;;;;;;;;;10.97;44.40;102324.47;4958418;28;107918;-66
2022/12/18 00:58:47;;;;;;;;;;;;;;;10.96;44.47;102325.50;4937680;28;104443;-70
2022/12/18 01:01:13;;;;;;;;;;;;;;;10.96;44.63;102333.59;4942082;28;114189;-70
2022/12/18 01:03:39;;;;;;;;;;;;;;;10.95;44.31;102338.16;4955709;28;99431;-66
2022/12/18 01:06:09;;;;;;;;;;;;;;;10.96;44.28;102337.09;4971565;28;98014;-66
2022/12/18 01:08:35;;;;;;;;;;;;;;;10.95;44.39;102340.88;4939614;28;99023;-66
2022/12/18 01:11:06;;;;;;;;;;;;;;;10.95;44.27;102343.56;4937441;28;98198;-66
2022/12/18 01:13:32;;;;;;;;;;;;;;;10.95;44.36;102340.88;4958010;28;107398;-70
2022/12/18 01:15:58;;;;;;;;;;;;;;;10.95;44.73;102348.13;4943634;28;122783;-70
2022/12/18 01:18:24;;;;;;;;;;;;;;;10.95;44.40;102364.31;4958479;28;98436;-66
2022/12/18 01:20:50;;;;;;;;;;;;;;;10.94;44.61;102363.50;4941885;28;128159;-66
2022/12/18 01:23:16;;;;;;;;;;;;;;;10.95;44.31;102364.31;4940831;28;126748;-66
2022/12/18 01:25:42;;;;;;;;;;;;;;;10.95;44.62;102362.44;4959667;28;98169;-70
2022/12/18 01:28:08;;;;;;;;;;;;;;;10.95;44.47;102351.66;4958604;28;126754;-67
2022/12/18 01:30:34;;;;;;;;;;;;;;;10.95;44.70;102350.84;4954606;28;128907;-70
2022/12/18 01:33:00;;;;;;;;;;;;;;;10.95;44.52;102346.25;4955389;28;127732;-66
2022/12/18 01:35:26;;;;;;;;;;;;;;;10.95;44.46;102346.25;4940630;28;122392;-70
2022/12/18 01:37:54;;;;;;;;;;;;;;;10.94;44.51;102352.72;4943303;28;127449;-66
2022/12/18 01:40:20;;;;;;;;;;;;;;;10.94;44.54;102354.59;4921436;28;98691;-66
2022/12/18 01:42:51;;;;;;;;;;;;;;;10.92;44.68;102354.81;4942513;28;98108;-71
2022/12/18 01:45:23;;;;;;;;;;;;;;;10.92;44.66;102360.19;4955169;28;98025;-66
2022/12/18 01:48:00;;;;;;;;;;;;;;;10.91;44.31;102353.16;4948074;28;98183;-70
2022/12/18 01:50:36;;;;;;;;;;;;;;;10.91;44.42;102346.94;4945209;28;98724;-70
2022/12/18 01:53:05;;;;;;;;;;;;;;;10.90;44.28;102356.91;4973713;28;98621;-70
2022/12/18 01:55:32;;;;;;;;;;;;;;;10.90;44.46;102348.00;4974705;28;98746;-70
2022/12/18 01:57:59;;;;;;;;;;;;;;;10.89;44.46;102349.88;4940052;28;114476;-69
2022/12/18 02:00:26;;;;;;;;;;;;;;;10.89;44.70;102346.34;4945056;28;98784;-70
2022/12/18 02:02:51;;;;;;;;;;;;;;;10.88;44.12;102350.91;4955230;28;98397;-70
2022/12/18 02:05:46;;;;;;;;;;;;;;;10.88;44.62;102368.97;4940203;28;100026;-66
2022/12/18 02:08:25;;;;;;;;;;;;;;;10.88;44.20;102374.34;4955466;28;122539;-66
2022/12/18 02:10:57;;;;;;;;;;;;;;;10.85;44.12;102369.44;4939546;28;130401;-70
2022/12/18 02:13:32;;;;;;;;;;;;;;;10.84;44.60;102370.47;4970800;28;100043;-66
2022/12/18 02:16:43;;;;;;;;;;;;;;;10.80;44.79;102373.59;4941935;28;118250;-66
2022/12/18 02:19:34;;;;;;;;;;;;;;;10.79;44.56;102369.25;4948079;28;130102;-66
2022/12/18 02:22:13;;;;;;;;;;;;;;;10.77;44.19;102363.28;4957824;28;98463;-66
2022/12/18 02:25:02;;;;;;;;;;;;;;;10.76;44.52;102376.97;4955014;28;98479;-66
2022/12/18 02:27:29;;;;;;;;;;;;;;;10.74;44.44;102377.19;4919445;28;97971;-66
2022/12/18 02:29:55;;;;;;;;;;;;;;;10.73;44.91;102374.75;4941116;28;109744;-66
2022/12/18 02:32:26;;;;;;;;;;;;;;;10.71;44.31;102374.13;4940803;28;127189;-71
2022/12/18 02:34:53;;;;;;;;;;;;;;;10.70;44.67;102370.59;4951685;28;98027;-66
2022/12/18 02:37:19;;;;;;;;;;;;;;;10.69;44.27;102371.66;4940763;28;122383;-70
2022/12/18 02:39:47;;;;;;;;;;;;;;;10.67;44.61;102371.03;4943352;28;124944;-66
2022/12/18 02:42:12;;;;;;;;;;;;;;;10.66;44.72;102364.00;4940309;28;119420;-70
2022/12/18 02:44:44;;;;;;;;;;;;;;;10.66;44.13;102372.09;4940103;28;126640;-66
2022/12/18 02:47:13;;;;;;;;;;;;;;;10.65;44.09;102383.09;4959897;28;98100;-66
2022/12/18 02:49:53;;;;;;;;;;;;;;;10.64;44.55;102384.97;4935733;28;117482;-66
2022/12/18 02:52:25;;;;;;;;;;;;;;;10.64;44.43;102390.34;4955955;28;99798;-65
2022/12/18 02:55:07;;;;;;;;;;;;;;;10.63;44.52;102388.72;4972584;28;99327;-70
2022/12/18 02:57:34;;;;;;;;;;;;;;;10.63;44.46;102372.53;4971635;28;99033;-70
2022/12/18 03:00:20;;;;;;;;;;;;;;;10.62;44.32;102376.28;4973616;28;98457;-70
2022/12/18 03:02:59;;;;;;;;;;;;;;;10.62;44.34;102375.47;4960451;28;115379;-70
2022/12/18 03:05:47;;;;;;;;;;;;;;;10.60;44.22;102378.34;4956483;28;97941;-66
2022/12/18 03:08:23;;;;;;;;;;;;;;;10.60;44.45;102367.56;4950719;28;107357;-70
2022/12/18 03:11:09;;;;;;;;;;;;;;;10.59;44.06;102376.72;4940394;28;106254;-70
2022/12/18 03:13:41;;;;;;;;;;;;;;;10.60;44.58;102374.84;4943493;28;98178;-66
2022/12/18 03:16:09;;;;;;;;;;;;;;;10.59;44.68;102375.91;4937981;28;128535;-66
2022/12/18 03:18:44;;;;;;;;;;;;;;;10.57;44.31;102368.88;4927837;28;111950;-70
2022/12/18 03:21:10;;;;;;;;;;;;;;;10.56;44.32;102375.28;4927971;28;128986;-66
2022/12/18 03:23:46;;;;;;;;;;;;;;;10.57;44.08;102373.41;4961445;28;125757;-66
2022/12/18 03:26:15;;;;;;;;;;;;;;;10.55;44.17;102389.81;4957629;28;98255;-66
2022/12/18 03:28:45;;;;;;;;;;;;;;;10.55;44.31;102383.59;4960058;28;110354;-66
2022/12/18 03:31:12;;;;;;;;;;;;;;;10.55;44.38;102386.28;4969673;28;124995;-70
2022/12/18 03:33:43;;;;;;;;;;;;;;;10.53;44.66;102386.53;4957269;28;98347;-70
2022/12/18 03:36:09;;;;;;;;;;;;;;;10.53;44.37;102385.69;4957415;28;117727;-66
2022/12/18 03:38:35;;;;;;;;;;;;;;;10.52;44.33;102379.47;4977717;28;98108;-70
2022/12/18 03:41:39;;;;;;;;;;;;;;;10.51;43.98;102385.91;4942775;28;112216;-70
2022/12/18 03:44:15;;;;;;;;;;;;;;;10.50;44.57;102395.06;4859589;28;98901;-66
2022/12/18 03:46:48;;;;;;;;;;;;;;;10.50;44.47;102395.06;4857966;28;107765;-66
2022/12/18 03:49:26;;;;;;;;;;;;;;;10.50;44.15;102395.06;4882555;28;98003;-66
2022/12/18 03:52:01;;;;;;;;;;;;;;;10.49;44.03;102398.81;4941365;28;99375;-66
2022/12/18 03:54:27;;;;;;;;;;;;;;;10.49;44.56;102392.56;4946612;28;123261;-65
2022/12/18 03:56:59;;;;;;;;;;;;;;;10.48;44.23;102383.66;4941295;28;115512;-70
2022/12/18 03:59:25;;;;;;;;;;;;;;;10.48;44.34;102394.44;4940985;28;114751;-66
2022/12/18 04:01:51;;;;;;;;;;;;;;;10.48;44.80;102399.81;4947012;28;100015;-66
2022/12/18 04:04:18;;;;;;;;;;;;;;;10.49;44.04;102411.44;4943315;28;98500;-66
2022/12/18 04:06:44;;;;;;;;;;;;;;;10.48;44.10;102415.19;4922855;28;127443;-66
2022/12/18 04:09:10;;;;;;;;;;;;;;;10.47;44.02;102414.34;4924588;28;99571;-66
2022/12/18 04:11:36;;;;;;;;;;;;;;;10.49;44.17;102416.81;4949371;28;128307;-66
2022/12/18 04:14:01;;;;;;;;;;;;;;;10.47;44.10;102411.66;4934959;28;124925;-70
2022/12/18 04:16:28;;;;;;;;;;;;;;;10.48;44.01;102417.88;4928620;28;130008;-69
2022/12/18 04:18:54;;;;;;;;;;;;;;;10.47;44.51;102419.75;4921130;28;98169;-70
2022/12/18 04:21:20;;;;;;;;;;;;;;;10.46;44.45;102420.81;4939923;28;124468;-66
2022/12/18 04:23:45;;;;;;;;;;;;;;;10.46;44.67;102431.59;4963552;28;98410;-66
2022/12/18 04:26:11;;;;;;;;;;;;;;;10.46;44.37;102431.59;4923541;28;126812;-66
2022/12/18 04:28:37;;;;;;;;;;;;;;;10.47;44.64;102437.81;4947430;28;100607;-70
2022/12/18 04:31:03;;;;;;;;;;;;;;;10.46;44.21;102438.84;4943182;28;128674;-67
2022/12/18 04:33:29;;;;;;;;;;;;;;;10.46;43.94;102442.38;4938841;28;114754;-70
2022/12/18 04:35:55;;;;;;;;;;;;;;;10.46;44.11;102450.47;4927869;28;127987;-70
2022/12/18 04:38:21;;;;;;;;;;;;;;;10.46;44.19;102442.38;4941946;28;106518;-66
2022/12/18 04:40:47;;;;;;;;;;;;;;;10.45;44.05;102432.66;4958660;28;128116;-70
2022/12/18 04:43:13;;;;;;;;;;;;;;;10.45;44.51;102435.34;4956347;28;126887;-66
2022/12/18 04:45:39;;;;;;;;;;;;;;;10.44;44.35;102430.97;4956540;28;126503;-65
2022/12/18 04:48:05;;;;;;;;;;;;;;;10.45;44.05;102438.03;4928930;28;122018;-70
2022/12/18 04:50:31;;;;;;;;;;;;;;;10.45;44.22;102440.72;4930440;28;127181;-70
2022/12/18 04:52:57;;;;;;;;;;;;;;;10.46;44.18;102444.25;4956578;28;121161;-66
2022/12/18 04:55:23;;;;;;;;;;;;;;;10.45;44.42;102429.94;4940614;28;109899;-66
2022/12/18 04:57:49;;;;;;;;;;;;;;;10.46;44.66;102434.28;4940585;28;104093;-70
2022/12/18 05:00:15;;;;;;;;;;;;;;;10.45;44.02;102431.78;4942330;28;126584;-70
2022/12/18 05:02:41;;;;;;;;;;;;;;;10.44;44.19;102433.66;4943663;28;98580;-66
2022/12/18 05:05:07;;;;;;;;;;;;;;;10.44;44.59;102424.75;4940168;28;128026;-70
2022/12/18 05:07:33;;;;;;;;;;;;;;;10.44;44.39;102438.22;4938564;28;97935;-66
2022/12/18 05:09:59;;;;;;;;;;;;;;;10.43;44.63;102439.28;4922820;28;128451;-70
2022/12/18 05:12:25;;;;;;;;;;;;;;;10.43;44.47;102437.41;4940055;28;128203;-71
2022/12/18 05:14:51;;;;;;;;;;;;;;;10.43;44.10;102439.28;4930302;28;126849;-70
2022/12/18 05:17:17;;;;;;;;;;;;;;;10.41;44.11;102442.19;4944856;28;118545;-71
2022/12/18 05:19:43;;;;;;;;;;;;;;;10.41;44.61;102441.34;4953094;28;128317;-66
2022/12/18 05:22:09;;;;;;;;;;;;;;;10.41;44.24;102439.47;4916054;28;98516;-66
2022/12/18 05:24:35;;;;;;;;;;;;;;;10.39;44.07;102438.91;4922851;28;123721;-66
2022/12/18 05:27:01;;;;;;;;;;;;;;;10.38;44.46;102428.34;4937123;28;117304;-66
2022/12/18 05:29:27;;;;;;;;;;;;;;;10.40;44.47;102437.84;4922433;28;128571;-70
2022/12/18 05:31:53;;;;;;;;;;;;;;;10.43;44.59;102440.09;4939859;28;98354;-66
2022/12/18 05:34:19;;;;;;;;;;;;;;;10.49;44.27;102436.56;4932567;28;128351;-66
2022/12/18 05:36:44;;;;;;;;;;;;;;;10.55;44.11;102446.44;4935158;28;99398;-66
2022/12/18 05:39:10;;;;;;;;;;;;;;;10.60;44.35;102445.78;4954828;28;127254;-71
2022/12/18 05:41:36;;;;;;;;;;;;;;;10.65;44.51;102464.00;4919596;28;126212;-66
2022/12/18 05:44:02;;;;;;;;;;;;;;;10.66;44.54;102465.66;4907341;28;127070;-66
2022/12/18 05:46:29;;;;;;;;;;;;;;;10.71;44.69;102476.63;4921314;28;124185;-66
2022/12/18 05:48:55;;;;;;;;;;;;;;;10.72;44.14;102479.09;4940603;28;98566;-66
2022/12/18 05:51:21;;;;;;;;;;;;;;;10.74;44.60;102468.91;4935983;28;126110;-70
2022/12/18 05:53:48;;;;;;;;;;;;;;;10.75;44.29;102473.25;4939948;28;114522;-70
2022/12/18 05:56:16;;;;;;;;;;;;;;;10.76;44.00;102468.69;4920361;28;98015;-70
2022/12/18 05:58:42;;;;;;;;;;;;;;;10.77;44.28;102473.06;4922327;28;126020;-66
2022/12/18 06:01:08;;;;;;;;;;;;;;;10.75;44.25;102465.16;4923809;28;124510;-70
2022/12/18 06:03:34;;;;;;;;;;;;;;;10.76;44.34;102461.41;4953778;28;98109;-66
2022/12/18 06:06:00;;;;;;;;;;;;;;;10.76;44.26;102456.00;4938517;28;125056;-66
2022/12/18 06:08:25;;;;;;;;;;;;;;;10.75;44.64;102457.06;4920816;28;127510;-66
2022/12/18 06:10:55;;;;;;;;;;;;;;;10.75;44.75;102465.16;4949707;28;127703;-66
2022/12/18 06:13:21;;;;;;;;;;;;;;;10.74;44.31;102468.91;4922959;28;99431;-66
2022/12/18 06:15:46;;;;;;;;;;;;;;;10.74;44.41;102479.69;4937690;28;113050;-70
2022/12/18 06:18:12;;;;;;;;;;;;;;;10.75;44.58;102480.53;4933111;28;128281;-70
2022/12/18 06:20:41;;;;;;;;;;;;;;;10.73;44.75;102469.16;4929289;28;127748;-70
2022/12/18 06:23:07;;;;;;;;;;;;;;;10.71;44.54;102484.72;4948141;28;98327;-71
2022/12/18 06:25:32;;;;;;;;;;;;;;;10.71;44.07;102490.09;4919732;28;116946;-66
2022/12/18 06:27:59;;;;;;;;;;;;;;;10.70;44.32;102497.38;4915012;28;128723;-66
2022/12/18 06:30:24;;;;;;;;;;;;;;;10.69;44.23;102509.22;4918482;28;100800;-70
2022/12/18 06:32:50;;;;;;;;;;;;;;;10.69;44.33;102502.97;4932840;28;126595;-70
2022/12/18 06:35:16;;;;;;;;;;;;;;;10.68;44.69;102506.72;4933659;28;97878;-67
2022/12/18 06:37:42;;;;;;;;;;;;;;;10.67;44.60;102496.97;4934149;28;127701;-71
2022/12/18 06:40:08;;;;;;;;;;;;;;;10.65;44.44;102497.22;4919570;28;126862;-66
2022/12/18 06:42:34;;;;;;;;;;;;;;;10.65;44.27;102502.59;4936169;28;98352;-70
2022/12/18 06:45:00;;;;;;;;;;;;;;;10.65;44.40;102499.06;4962395;28;122596;-70
2022/12/18 06:47:26;;;;;;;;;;;;;;;10.65;44.53;102512.53;4938051;28;113553;-66
2022/12/18 06:49:52;;;;;;;;;;;;;;;10.64;44.55;102505.50;4954384;28;127311;-66
2022/12/18 06:52:18;;;;;;;;;;;;;;;10.64;44.56;102500.94;4956065;28;99590;-66
2022/12/18 06:54:44;;;;;;;;;;;;;;;10.63;44.84;102507.38;4955767;28;119018;-66
2022/12/18 06:57:10;;;;;;;;;;;;;;;10.63;44.14;102512.78;4949466;28;127625;-70
2022/12/18 06:59:36;;;;;;;;;;;;;;;10.64;44.67;102503.63;4957588;28;127733;-70
2022/12/18 07:02:02;;;;;;;;;;;;;;;10.63;44.63;102504.69;4957536;28;128277;-70
2022/12/18 07:04:31;;;;;;;;;;;;;;;10.63;44.63;102501.97;4940762;28;122546;-66
2022/12/18 07:06:57;;;;;;;;;;;;;;;10.62;44.32;102505.72;4937387;28;97873;-66
2022/12/18 07:09:23;;;;;;;;;;;;;;;10.62;44.54;102513.00;4958597;28;98950;-66
2022/12/18 07:11:49;;;;;;;;;;;;;;;10.61;44.32;102522.13;4971376;28;125302;-70
2022/12/18 07:14:15;;;;;;;;;;;;;;;10.60;44.45;102524.00;4957879;28;121916;-66
2022/12/18 07:16:41;;;;;;;;;;;;;;;10.61;44.65;102535.59;4941718;28;106683;-70
2022/12/18 07:19:07;;;;;;;;;;;;;;;10.59;44.10;102530.44;4953227;28;127316;-66
2022/12/18 07:21:32;;;;;;;;;;;;;;;10.59;44.38;102527.75;4956815;28;127704;-65
2022/12/18 07:23:59;;;;;;;;;;;;;;;10.57;44.63;102530.66;4955326;28;122223;-66
2022/12/18 07:26:26;;;;;;;;;;;;;;;10.58;44.38;102536.88;4958313;28;98560;-70
2022/12/18 07:28:56;;;;;;;;;;;;;;;10.57;44.65;102541.44;4928285;28;100153;-70
2022/12/18 07:31:22;;;;;;;;;;;;;;;10.57;44.34;102544.16;4944014;28;98995;-70
2022/12/18 07:33:48;;;;;;;;;;;;;;;10.57;44.48;102551.38;4941596;28;98439;-66
2022/12/18 07:36:13;;;;;;;;;;;;;;;10.58;44.59;102542.28;4973101;28;128280;-66
2022/12/18 07:38:39;;;;;;;;;;;;;;;10.60;44.34;102550.13;4938389;28;99677;-70
2022/12/18 07:41:12;;;;;;;;;;;;;;;10.60;44.31;102545.56;4936549;28;100183;-66
2022/12/18 07:43:38;;;;;;;;;;;;;;;10.61;44.41;102555.34;4955499;28;122316;-66
2022/12/18 07:46:05;;;;;;;;;;;;;;;10.62;44.14;102561.56;4971486;28;98199;-70
2022/12/18 07:48:31;;;;;;;;;;;;;;;10.63;44.56;102564.00;4954542;28;122418;-66
2022/12/18 07:51:00;;;;;;;;;;;;;;;10.68;44.30;102563.34;4970267;28;98148;-66
2022/12/18 07:53:26;;;;;;;;;;;;;;;10.77;44.38;102562.06;4941180;28;109066;-66
2022/12/18 07:55:59;;;;;;;;;;;;;;;10.86;43.68;102557.22;4935971;28;98289;-66
2022/12/18 07:58:25;;;;;;;;;;;;;;;10.89;43.88;102554.94;4940787;28;99613;-70
2022/12/18 08:00:52;;;;;;;;;;;;;;;10.96;43.79;102549.47;4955404;28;126976;-70
2022/12/18 08:03:18;;;;;;;;;;;;;;;11.05;43.52;102549.00;4972853;27;97895;-70
2022/12/18 08:05:44;;;;;;;;;;;;;;;11.18;43.74;102539.13;4953410;28;115596;-66
2022/12/18 08:08:09;;;;;;;;;;;;;;;11.33;43.46;102536.09;4954397;28;128200;-70
2022/12/18 08:10:35;;;;;;;;;;;;;;;11.50;43.42;102529.03;4929982;28;128497;-66
2022/12/18 08:13:01;;;;;;;;;;;;;;;11.73;43.46;102534.63;4937178;28;121503;-70
2022/12/18 08:15:27;;;;;;;;;;;;;;;11.95;43.18;102532.31;4947176;28;128091;-70
2022/12/18 08:17:58;;;;;;;;;;;;;;;12.19;42.99;102519.75;4956369;28;129185;-66
2022/12/18 08:20:24;;;;;;;;;;;;;;;12.49;42.91;102519.72;4957972;28;121950;-66
2022/12/18 08:22:50;;;;;;;;;;;;;;;12.80;42.87;102519.69;4942120;28;122380;-70
2022/12/18 08:25:16;;;;;;;;;;;;;;;13.14;42.75;102526.22;4940939;28;128211;-70
2022/12/18 08:27:42;;;;;;;;;;;;;;;13.47;42.63;102529.16;4973023;28;128617;-70
2022/12/18 08:30:08;;;;;;;;;;;;;;;13.78;42.44;102535.25;4947720;28;126936;-71
2022/12/18 08:32:34;;;;;;;;;;;;;;;14.07;42.42;102536.13;4934543;28;98174;-67
2022/12/18 08:35:00;;;;;;;;;;;;;;;14.24;42.23;102537.00;4941461;28;99290;-70
2022/12/18 08:37:26;;;;;;;;;;;;;;;14.32;42.56;102543.94;4936916;28;128016;-71
2022/12/18 08:39:52;;;;;;;;;;;;;;;14.33;42.87;102544.75;4937631;28;122370;-67
2022/12/18 08:45:03;;;;;;;;;;;;;;;14.68;42.61;102534.56;4954018;28;98226;-66
2022/12/18 08:47:29;;;;;;;;;;;;;;;14.89;42.37;102534.91;4948756;28;103860;-70
2022/12/18 08:49:55;;;;;;;;;;;;;;;15.09;42.14;102540.69;4939127;28;128825;-67
2022/12/18 08:52:21;;;;;;;;;;;;;;;15.28;42.16;102540.41;4937958;28;121112;-67
2022/12/18 08:54:46;;;;;;;;;;;;;;;15.45;42.51;102541.22;4948159;28;128433;-70
2022/12/18 08:57:12;;;;;;;;;;;;;;;15.59;42.24;102528.91;4916786;28;128474;-67
2022/12/18 08:59:38;;;;;;;;;;;;;;;15.71;42.48;102524.22;4940600;28;125905;-71
2022/12/18 09:02:04;;;;;;;;;;;;;;;15.84;42.37;102539.34;4942932;28;122299;-71
2022/12/18 09:04:30;;;;;;;;;;;;;;;15.97;42.48;102531.88;4936004;28;127806;-71
2022/12/18 09:06:56;;;;;;;;;;;;;;;16.10;42.36;102542.34;4954067;28;129112;-72
2022/12/18 09:09:22;;;;;;;;;;;;;;;16.20;42.44;102540.59;4939450;28;128762;-71
2022/12/18 09:11:48;;;;;;;;;;;;;;;16.32;42.43;102536.91;4941249;28;122969;-70
2022/12/18 09:14:14;;;;;;;;;;;;;;;16.41;42.49;102536.16;4954686;28;128539;-67
2022/12/18 09:16:40;;;;;;;;;;;;;;;16.51;42.30;102545.53;4953471;28;118082;-71
2022/12/18 09:19:06;;;;;;;;;;;;;;;16.59;42.53;102543.16;4939170;28;128049;-67
2022/12/18 09:21:33;;;;;;;;;;;;;;;16.63;42.50;102547.00;4951877;28;98087;-67
2022/12/18 09:23:59;;;;;;;;;;;;;;;16.67;42.54;102550.03;4924351;28;98170;-67
2022/12/18 09:26:25;;;;;;;;;;;;;;;16.68;42.49;102547.06;4952029;28;99070;-70
2022/12/18 09:28:51;;;;;;;;;;;;;;;16.66;42.44;102551.94;4953164;28;121601;-67
2022/12/18 09:31:19;;;;;;;;;;;;;;;16.67;42.64;102563.66;4939033;28;106808;-67
2022/12/18 09:33:45;;;;;;;;;;;;;;;16.63;42.83;102578.88;4941722;28;100398;-70
2022/12/18 09:36:13;;;;;;;;;;;;;;;16.60;42.83;102582.09;4935090;28;99279;-67
2022/12/18 09:38:38;;;;;;;;;;;;;;;16.54;43.00;102597.53;4949209;28;128209;-70
2022/12/18 09:41:40;;;;;;;;;;;;;;;16.48;43.03;102598.56;4954166;28;121805;-70
2022/12/18 09:44:17;;;;;;;;;;;;;;;16.39;43.09;102597.41;4968551;28;98376;-67
2022/12/18 09:46:46;;;;;;;;;;;;;;;16.31;43.22;102579.63;4954593;28;110185;-67
2022/12/18 09:49:16;;;;;;;;;;;;;;;16.23;43.18;102588.25;4937250;28;112265;-70
2022/12/18 09:52:14;;;;;;;;;;;;;;;16.15;43.20;102580.50;4939857;28;108729;-67
2022/12/18 09:54:45;;;;;;;;;;;;;;;16.04;43.37;102578.75;4947071;28;98175;-70
2022/12/18 09:57:15;;;;;;;;;;;;;;;15.92;43.42;102570.72;4950236;28;102706;-67
2022/12/18 09:59:41;;;;;;;;;;;;;;;15.81;43.39;102572.47;4950962;28;98067;-67
2022/12/18 10:02:16;;;;;;;;;;;;;;;15.72;43.51;102565.84;4951867;28;120749;-70
2022/12/18 10:04:42;;;;;;;;;;;;;;;15.60;43.65;102552.31;4935745;28;120711;-70
2022/12/18 10:07:34;;;;;;;;;;;;;;;15.50;43.63;102548.63;4951920;28;129137;-69
2022/12/18 10:10:27;;;;;;;;;;;;;;;15.37;43.60;102534.31;4953851;28;98136;-67
2022/12/18 10:13:16;;;;;;;;;;;;;;;15.25;43.66;102525.47;4954838;28;98426;-70
2022/12/18 10:16:22;;;;;;;;;;;;;;;15.13;43.81;102520.13;4957693;28;98954;-67
2022/12/18 10:19:06;;;;;;;;;;;;;;;15.01;43.79;102513.94;4936545;28;106045;-68
2022/12/18 10:21:42;;;;;;;;;;;;;;;14.89;44.15;102505.06;4968780;28;98214;-67
2022/12/18 10:24:21;;;;;;;;;;;;;;;14.79;43.95;102504.91;4952856;28;99234;-70
2022/12/18 10:26:47;;;;;;;;;;;;;;;14.67;43.71;102504.97;4949178;28;99987;-67
2022/12/18 10:29:14;;;;;;;;;;;;;;;14.60;43.66;102499.69;4958977;28;99863;-67
2022/12/18 10:31:40;;;;;;;;;;;;;;;14.52;43.98;102502.00;4942100;28;98137;-66
2022/12/18 10:34:14;;;;;;;;;;;;;;;14.42;43.75;102499.88;4952237;28;121404;-66
2022/12/18 10:36:40;;;;;;;;;;;;;;;14.34;43.82;102501.09;4969476;28;98273;-66
2022/12/18 10:39:22;;;;;;;;;;;;;;;14.27;43.96;102505.06;4933682;28;109672;-67
2022/12/18 10:41:49;;;;;;;;;;;;;;;14.20;44.10;102499.75;4933968;28;119298;-69
2022/12/18 10:44:22;;;;;;;;;;;;;;;14.14;44.08;102498.00;4919024;28;99526;-66
2022/12/18 10:46:49;;;;;;;;;;;;;;;14.09;43.90;102485.19;4955150;28;99809;-66
2022/12/18 10:49:21;;;;;;;;;;;;;;;14.04;44.01;102489.69;4939133;28;98438;-66
2022/12/18 10:51:47;;;;;;;;;;;;;;;13.98;44.01;102478.72;4921204;28;117801;-69
2022/12/18 10:54:17;;;;;;;;;;;;;;;13.93;43.66;102481.34;4960772;28;121202;-69
2022/12/18 10:56:43;;;;;;;;;;;;;;;13.89;43.90;102480.19;4967056;28;99472;-70
2022/12/18 10:59:11;;;;;;;;;;;;;;;13.86;43.65;102486.09;4954383;28;122859;-67
2022/12/18 11:01:54;;;;;;;;;;;;;;;13.82;43.72;102474.06;4940457;28;98391;-70
2022/12/18 11:04:22;;;;;;;;;;;;;;;13.78;44.01;102469.38;4938431;28;99588;-66
2022/12/18 11:06:59;;;;;;;;;;;;;;;13.73;44.02;102459.25;4950079;28;99818;-66
2022/12/18 11:09:31;;;;;;;;;;;;;;;13.67;43.86;102455.63;4955492;28;98198;-69
2022/12/18 11:11:58;;;;;;;;;;;;;;;13.63;44.02;102454.44;4938084;28;98229;-70
2022/12/18 11:14:30;;;;;;;;;;;;;;;13.59;43.85;102455.16;4955501;28;98002;-66
2022/12/18 11:16:57;;;;;;;;;;;;;;;13.55;44.05;102454.00;4953073;28;98713;-70
2022/12/18 11:19:28;;;;;;;;;;;;;;;13.50;43.73;102449.31;4952995;28;98217;-66
2022/12/18 11:21:54;;;;;;;;;;;;;;;13.45;43.84;102447.31;4968267;28;99539;-67
2022/12/18 11:24:36;;;;;;;;;;;;;;;13.41;43.76;102440.72;4934991;28;122728;-67
2022/12/18 11:27:03;;;;;;;;;;;;;;;13.36;43.91;102440.63;4953815;28;98431;-69
2022/12/18 11:29:39;;;;;;;;;;;;;;;13.32;43.87;102439.44;4935113;28;127098;-67
2022/12/18 11:32:28;;;;;;;;;;;;;;;13.29;43.84;102452.66;4950992;28;98912;-69
2022/12/18 11:35:12;;;;;;;;;;;;;;;13.23;44.16;102449.00;4958511;28;97971;-69
2022/12/18 11:37:38;;;;;;;;;;;;;;;13.21;44.15;102453.81;4955227;28;98609;-66
2022/12/18 11:40:17;;;;;;;;;;;;;;;13.16;43.75;102457.19;4923239;28;127452;-69
2022/12/18 11:42:58;;;;;;;;;;;;;;;13.14;44.19;102461.22;4952782;28;109293;-66
2022/12/18 11:45:27;;;;;;;;;;;;;;;13.11;43.83;102458.97;4940787;28;99071;-70
2022/12/18 11:47:57;;;;;;;;;;;;;;;13.06;43.96;102454.28;4941041;28;100209;-69
2022/12/18 11:50:35;;;;;;;;;;;;;;;12.99;43.88;102440.03;4953482;28;99744;-69
2022/12/18 11:53:02;;;;;;;;;;;;;;;12.94;44.13;102439.94;4972587;28;98307;-69
2022/12/18 11:55:36;;;;;;;;;;;;;;;12.89;43.86;102440.63;4940093;28;98108;-69
2022/12/18 11:58:14;;;;;;;;;;;;;;;12.88;43.80;102438.16;4970669;28;98654;-69
2022/12/18 12:00:53;;;;;;;;;;;;;;;12.85;44.15;102442.16;4968074;28;123359;-66
2022/12/18 12:03:44;;;;;;;;;;;;;;;12.85;43.96;102444.03;4937997;28;125284;-69
2022/12/18 12:06:31;;;;;;;;;;;;;;;12.82;44.07;102445.34;4956830;28;117619;-66
2022/12/18 12:09:13;;;;;;;;;;;;;;;12.80;43.88;102449.31;4938852;28;122175;-66
2022/12/18 12:12:07;;;;;;;;;;;;;;;12.74;44.04;102454.63;4954905;28;98971;-69
2022/12/18 12:14:42;;;;;;;;;;;;;;;12.72;44.06;102459.44;4931530;28;100008;-69
2022/12/18 12:17:21;;;;;;;;;;;;;;;12.70;44.08;102453.44;4954820;28;97904;-66
2022/12/18 12:19:49;;;;;;;;;;;;;;;12.67;43.90;102448.50;4938696;28;100072;-67
2022/12/18 12:22:36;;;;;;;;;;;;;;;12.65;43.91;102455.19;4951965;28;98250;-66
2022/12/18 12:25:28;;;;;;;;;;;;;;;12.62;44.03;102461.09;4951016;28;121114;-66
2022/12/18 12:28:03;;;;;;;;;;;;;;;12.58;43.82;102462.59;4956058;28;99103;-69
2022/12/18 12:30:50;;;;;;;;;;;;;;;12.56;44.04;102462.81;4950301;28;98515;-66
2022/12/18 12:33:38;;;;;;;;;;;;;;;12.54;43.96;102473.06;4951475;28;118854;-70
2022/12/18 12:36:20;;;;;;;;;;;;;;;12.52;44.02;102467.03;4968433;28;99421;-69
2022/12/18 12:38:57;;;;;;;;;;;;;;;12.50;44.09;102475.41;4942535;28;98361;-69
2022/12/18 12:44:20;;;;;;;;;;;;;;;12.43;44.05;102469.28;4941134;28;98385;-66
2022/12/18 12:46:46;;;;;;;;;;;;;;;12.40;43.95;102471.59;4956755;28;98178;-66
2022/12/18 12:49:14;;;;;;;;;;;;;;;12.37;44.19;102475.59;4954492;27;124602;-70
2022/12/18 12:51:41;;;;;;;;;;;;;;;12.35;43.95;102476.91;4949969;28;98525;-66
2022/12/18 12:54:19;;;;;;;;;;;;;;;12.33;44.02;102469.00;4943267;28;121285;-69